Terminal Aerodrome Forecast
Issued by NWS St Louis, MO

Home | Current Version | Previous Version | Text Only | Print | Product List | Glossary On
Versions: 1 2 3 4 5 6 7 8 9 10 11 12 13 14 15 16 17 18 19 20 21 22
841
FTUS43 KLSX 022334
TAFSTL
TAF
KSTL 022334Z 0300/0406 24014G22KT P6SM SKC
     FM031100 27016G26KT P6SM OVC020
     FM032100 29015G25KT P6SM BKN035=

USA.gov is the U.S. government's official web portal to all federal, state and local government web resources and services.